East Glacier Park, MT

10:49 AM MST on February 24, 2018 (GMT -0700)
WINData - Snow Slip, MT | | Change Station
Active Advisory: Blizzard Warning

Elev 4380 ft 48.26 °N, 113.46 °W | Updated 30 minutes ago

Partly Cloudy
Partly Cloudy
17.3 °F
Feels Like 17 °F
N
0.0
Wind Variable Wind from SSW
Gusts 13.0 mph

Today
High -- | Low -- °F
--% Chance of Precip.
Yesterday
High -- | Low -- °F
Precip. -- in
Pressure 29.76 in
Visibility 10.0 miles
Clouds Clear
Windchill 17 °F
Dew Point 12 °F
Humidity 81%
Rainfall 0.00 in
Snow Depth Not available.
7:23 AM 6:09 PM
Waxing Gibbous, 66% visible
METAR KCTB 241656Z AUTO 27027KT 10SM CLR M06/M12 A2962 RMK AO2 PK WND 26032/1646 SLP077 T10611117
Pressure 29.76 in
Visibility 10.0 miles
Clouds Clear
Windchill 17 °F
Dew Point 12 °F
Humidity 81%
Rainfall 0.00 in
Snow Depth Not available.
7:23 AM 6:09 PM
Waxing Gibbous, 66% visible
METAR KCTB 241656Z AUTO 27027KT 10SM CLR M06/M12 A2962 RMK AO2 PK WND 26032/1646 SLP077 T10611117

Get Your Daily Forecast Email!

Thanks for signing up!

Be on the lookout for a verification email in your inbox.

You'll start receiving severe weather alerts in your inbox..

×

10-Day Weather Forecast

Almanac

Astronomy

Feb. 24, 2018 Rise Set
Actual Time
Civil Twilight
Nautical Twilight
Astronomical Twilight
Moon
Length of Visible Light
Length of Day
Tomorrow will be .
, % of the Moon is Illuminated

Today's Extremes

State Highs State Lows

Community

WunderPhotos

Category 6

Welcome to Category 6. This is the collective home for Weather Underground's featured writeups by Dr. Jeff Masters (right), Bob Henson (left), Chris Burt, and other regular contributors.

Nearby

Air Quality

  Air Quality AQ Index Pollutant
Not available.

Snow Depth

Station Depth Elevation

Earthquake Activity

City Distance Mag. Time & Date
Minimum magnitude displayed is 2.5.

Coastal Water Temperatures

Place Temperature

Stations

Nearby Weather Stations

Station Location Temp. Windchill Dew Point Humidity Wind Precip. Elev Updated Type
                   

Watches & Warnings

Blizzard Warning
Issued: 3:16 AM MST Feb. 24, 2018 – National Weather Service

... Blizzard Warning now in effect until noon MST today...

* what... blizzard conditions. Winds gusting as high as 65 mph will
cause whiteout conditions in blowing snow. Significant drifting
of the snow is likely.

* Where... northern Rocky Mountain front, eastern Glacier and
southern Rocky Mountain front.

* When... until noon MST today.

* Additional details... travel will be very dangerous to
impossible. Power outages are possible.

Precautionary/preparedness actions...

Listen to NOAA Weather Radio or your local media for the latest
updates on this situation.

For specific Road and travel conditions in Montana, dial 5 1 1